METAR AND TAF INFORMATION
METAR FOR KONT
KONT 230453Z 25008KT 10SM FEW200 26/11 A2986 RMK AO2 SLP093 T02560111
KONT 230353Z 24008KT 10SM FEW220 26/12 A2984 RMK AO2 SLP088 T02610117
KONT 230253Z 24010KT 10SM FEW110 FEW220 28/12 A2983 RMK AO2 SLP083 T02830117 53014
KONT 230520Z 2306/2412 25008KT P6SM SKC
FM230700 VRB04KT P6SM SKC
FM232100 25012G20KT P6SM SCT150
FM240200 25008KT P6SM SKC
FM240700 VRB04KT P6SM SKC

 AIRPORT MAP

 RUNWAY INFORMATION
Runway 08L Runway length 12198 ft Runway width 150 ft
Runway elevation 943 ft Runway displaced threshold 998 ft Runway heading 90
Runway 26R Runway length 12198 ft Runway width 150 ft
Runway elevation 930 ft Runway displaced threshold 0 ft Runway heading 270
Runway 08R Runway length 10200 ft Runway width 150 ft
Runway elevation 935 ft Runway displaced threshold 0 ft Runway heading 90
Runway 26L Runway length 10200 ft Runway width 150 ft
Runway elevation 924 ft Runway displaced threshold 0 ft Runway heading 270

 AIRPORT FREQUENCIES
Type A/D Name SOCAL APP/ Frequency 119.65 MHZ
Type ATIS Name ATIS Frequency 124.25 MHZ
Type CLD Name CLNC DEL Frequency 118.1 MHZ
Type GND Name GND Frequency 121.9 MHZ
Type TWR Name TWR Frequency 120.6 MHZ

 AIRPORT NEAR NAVIGATION AIDS
Type NDB Name Petis Frequency 397 KHZ

-